メインページ
METAR-TAF:

METAR-TAF

空港 :

ナナイモ, ブリティッシュコロンビア州, カナダ

ナナイモ空港

緯度: 49-03N, 経度: 123-52W, 海抜: 28m

現時点の気象観測

当レポートは8時間37分前の04:00(UTC)に作成
西/南西の風 3kt
気温 9°C
湿度 57%
気圧 1029 hPa
視程: 48.3km
高度18000ftの千切れ雲あり

METAR: CYCD 220400Z 25003KT 30SM BKN180 09/01 A3040 RMK AC6 LAST OBS/NEXT 221300UTC SLP296

時間: 05:37 (12:37 UTC)

予報

当レポートは12時間59分前の23:38(UTC)に作成
予報は22日の 00時(UTC)から 22日の 04時(UTC)まで有効
西の風 10kt、最大20ktの突風を伴う
視程: 10km
高度4000ftの雲は散在している
高度8000ftの雲は散在している
22日の 00時(UTC)から 22日の 04時(UTC)まで一時的に
視程: 10km
高度4000ftの千切れ雲あり
高度8000ftの千切れ雲あり
弱いにわか雨
22日の 00時(UTC)から 22日の 02時(UTC)まで徐々に
変向風 3kt

TAF: CYCD 212338Z 2200/2204 28010G20KT P6SM SCT040 SCT080 TEMPO 2200/2204 P6SM -SHRA BKN040 BKN080 BECMG 2200/2202 VRB03KT RMK NXT FCST WILL BE ISSUED AT 221445Z

4,000以上の空港の気象観測と天気予報(METAR報とTAF報)

利用可能な観測所は地図上に黄色い丸と赤い丸で示す。

丸の上にカーソルを重ねると観測所名を参照できる。

次にクリックすると気象観測と天気予報を参照できる。

マップの切り替え:黒色「×」印の緑ボタンをクリックして拡大、「-」印の緑ボタンをクリックして縮小、緑色の三角印をクリックして隣りの地図に切り替え


METAR-TAF: